Time;durP1;ratioP1;P1;durP2;ratioP2;P2;SDS_P1;SDS_P2;PMS_P1;PMS_P2;Temp;Humidity;BMP_temperature;BMP_pressure;BME280_temperature;BME280_humidity;BME280_pressure;Samples;Min_cycle;Max_cycle;Signal;HPM_P1;HPM_P2
2022/08/25 00:00:10;;;;;;;14.10;5.85;;;21.10;1.00;;;21.98;60.17;99852.66;5040116;27;129690;-73
2022/08/25 00:02:39;;;;;;;12.30;5.75;;;21.00;1.00;;;21.92;60.33;99849.44;5021342;27;123000;-72
2022/08/25 00:05:09;;;;;;;14.75;5.15;;;21.00;1.00;;;21.89;60.64;99845.50;5040856;27;121859;-75
2022/08/25 00:07:37;;;;;;;12.18;5.70;;;21.00;1.00;;;21.86;60.89;99845.44;5032855;27;131680;-71
2022/08/25 00:10:08;;;;;;;14.80;5.10;;;21.00;1.00;;;21.85;61.00;99844.66;5019631;27;129766;-70
2022/08/25 00:12:38;;;;;;;16.85;5.75;;;21.00;1.00;;;21.82;61.25;99850.94;5019785;28;119509;-70
2022/08/25 00:15:09;;;;;;;12.75;5.95;;;21.00;1.00;;;21.80;61.10;99858.81;5020446;28;119922;-71
2022/08/25 00:17:38;;;;;;;13.23;5.10;;;20.80;1.00;;;21.77;61.00;99853.25;5005263;28;128756;-71
2022/08/25 00:20:08;;;;;;;11.18;5.43;;;20.80;1.00;;;21.73;61.49;99858.72;5019615;28;129917;-72
2022/08/25 00:22:37;;;;;;;15.50;5.78;;;20.80;1.00;;;21.70;61.53;99859.50;5005496;28;118724;-71
2022/08/25 00:25:07;;;;;;;13.02;5.00;;;20.70;1.00;;;21.69;61.20;99855.13;5004958;28;118471;-73
2022/08/25 00:27:37;;;;;;;11.77;6.38;;;20.70;1.00;;;21.67;61.56;99854.72;5018504;28;130163;-71
2022/08/25 00:30:08;;;;;;;12.57;5.50;;;20.70;1.00;;;21.62;61.86;99852.31;5019536;28;130432;-72
2022/08/25 00:32:36;;;;;;;15.75;5.43;;;20.60;1.00;;;21.57;61.96;99849.91;5005339;28;119091;-71
2022/08/25 00:35:07;;;;;;;14.70;5.88;;;20.60;1.00;;;21.54;62.21;99849.47;5020207;28;120046;-74
2022/08/25 00:37:37;;;;;;;14.93;5.28;;;20.60;1.00;;;21.51;62.25;99852.97;5001654;28;130963;-72
2022/08/25 00:40:07;;;;;;;18.95;6.25;;;20.50;1.00;;;21.49;62.38;99855.31;5004879;28;128233;-73
2022/08/25 00:42:37;;;;;;;9.10;5.80;;;20.50;1.00;;;21.48;62.66;99858.44;5020339;28;119636;-72
2022/08/25 00:45:08;;;;;;;13.07;5.32;;;20.50;1.00;;;21.46;62.77;99861.56;5020706;28;119269;-71
2022/08/25 00:47:39;;;;;;;15.63;6.20;;;20.50;1.00;;;21.46;62.77;99856.03;5004420;28;130333;-71
2022/08/25 00:50:10;;;;;;;13.57;5.78;;;20.50;1.00;;;21.45;62.75;99848.94;5017609;27;129857;-72
2022/08/25 00:52:44;;;;;;;13.00;5.60;;;20.50;1.00;;;21.40;62.86;99852.03;5000831;28;121928;-73
2022/08/25 00:55:18;;;;;;;13.45;5.75;;;20.50;1.00;;;21.38;63.45;99857.13;5019588;28;121417;-74
2022/08/25 00:57:56;;;;;;;12.30;5.35;;;20.50;1.00;;;21.37;63.15;99863.81;5021356;28;129555;-72
2022/08/25 01:00:30;;;;;;;12.98;5.85;;;20.40;1.00;;;21.32;63.42;99855.88;5001548;28;129488;-72
2022/08/25 01:03:00;;;;;;;8.48;4.90;;;20.50;1.00;;;21.33;63.07;99851.94;5022910;27;119549;-72
2022/08/25 01:05:30;;;;;;;15.80;5.68;;;20.40;1.00;;;21.32;63.06;99855.88;5040397;27;119308;-72
2022/08/25 01:08:02;;;;;;;12.32;5.60;;;20.40;1.00;;;21.26;63.52;99852.66;5024597;27;129525;-72
2022/08/25 01:10:34;;;;;;;15.20;5.47;;;20.40;1.00;;;21.25;63.51;99855.78;5039638;27;129457;-73
2022/08/25 01:13:09;;;;;;;15.82;6.30;;;20.40;1.00;;;21.22;63.63;99853.78;5039860;27;119796;-71
2022/08/25 01:15:38;;;;;;;12.65;5.25;;;20.30;1.00;;;21.17;63.76;99852.94;5025122;27;118912;-75
2022/08/25 01:18:07;;;;;;;16.63;5.85;;;20.30;1.00;;;21.16;63.70;99854.13;5038563;27;129861;-72
2022/08/25 01:20:36;;;;;;;12.63;5.50;;;20.30;1.00;;;21.15;63.90;99852.50;5039560;27;129379;-71
2022/08/25 01:23:07;;;;;;;14.57;5.82;;;20.30;1.00;;;21.15;64.01;99851.72;5007855;27;119316;-71
2022/08/25 01:25:45;;;;;;;12.48;5.03;;;20.20;1.00;;;21.12;64.20;99847.75;5039827;27;120309;-71
2022/08/25 01:28:15;;;;;;;11.65;5.18;;;20.20;1.00;;;21.08;64.36;99852.41;5039427;27;130300;-75
2022/08/25 01:30:45;;;;;;;12.98;5.50;;;20.20;1.00;;;21.01;64.71;99853.13;5023478;27;128410;-77
2022/08/25 01:33:15;;;;;;;16.80;5.88;;;20.10;1.00;;;21.00;64.75;99850.72;5039416;27;119676;-71
2022/08/25 01:35:45;;;;;;;13.93;6.05;;;20.10;1.00;;;20.96;65.00;99855.44;5040843;27;119887;-76
2022/08/25 01:38:16;;;;;;;9.15;5.05;;;20.10;1.00;;;20.91;65.21;99850.22;5042996;27;129963;-71
2022/08/25 01:40:44;;;;;;;16.20;5.95;;;20.00;1.00;;;20.90;65.09;99851.41;5042730;27;129578;-78
2022/08/25 01:43:25;;;;;;;11.18;5.82;;;20.00;1.00;;;20.90;65.12;99856.91;5026845;27;121658;-71
2022/08/25 01:45:56;;;;;;;14.10;5.85;;;20.00;1.00;;;20.89;65.38;99849.81;5046077;27;122451;-73
2022/08/25 01:48:26;;;;;;;15.85;6.20;;;20.00;1.00;;;20.78;66.87;99847.66;5024441;27;130673;-71
2022/08/25 01:50:54;;;;;;;15.07;6.45;;;19.90;1.00;;;20.72;68.10;99851.13;5042299;27;129476;-72
2022/08/25 01:53:29;;;;;;;13.18;5.50;;;19.80;1.00;;;20.55;67.93;99847.69;5024392;27;119588;-73
2022/08/25 01:56:01;;;;;;;15.23;7.45;;;19.70;1.00;;;20.50;68.37;99852.75;5042998;27;119528;-71
2022/08/25 01:58:35;;;;;;;15.40;6.13;;;19.60;1.00;;;20.50;68.26;99858.25;5027529;27;128987;-71
2022/08/25 02:01:07;;;;;;;11.20;6.10;;;19.60;1.00;;;20.46;68.27;99861.75;5042279;27;129367;-72
2022/08/25 02:03:39;;;;;;;14.05;5.93;;;19.50;1.00;;;20.43;68.99;99856.97;5042706;27;119390;-74
2022/08/25 02:06:09;;;;;;;13.45;5.80;;;19.50;1.00;;;20.38;68.78;99859.25;5027675;27;118478;-74
2022/08/25 02:08:40;;;;;;;13.18;6.03;;;19.50;1.00;;;20.35;68.74;99860.78;5041188;27;130239;-71
2022/08/25 02:11:12;;;;;;;14.13;5.53;;;19.50;1.00;;;20.32;70.44;99856.03;5024076;27;129847;-72
2022/08/25 02:13:41;;;;;;;13.02;5.80;;;19.50;1.00;;;20.26;70.62;99857.50;5024482;27;119963;-71
2022/08/25 02:16:14;;;;;;;19.17;6.53;;;19.50;1.00;;;20.22;70.37;99857.41;5042308;27;119298;-74
2022/08/25 02:18:44;;;;;;;14.93;5.80;;;19.30;1.00;;;20.15;70.97;99850.97;5040577;27;129436;-73
2022/08/25 02:21:13;;;;;;;10.98;5.65;;;19.30;1.00;;;20.10;71.37;99861.16;5042282;27;129882;-71
2022/08/25 02:23:43;;;;;;;10.88;5.95;;;19.20;1.00;;;20.03;71.04;99855.53;5042894;27;119729;-72
2022/08/25 02:26:15;;;;;;;12.57;5.88;;;19.20;1.00;;;19.98;72.02;99858.59;5042730;27;119242;-71
2022/08/25 02:28:47;;;;;;;12.88;5.57;;;19.10;1.00;;;19.95;72.17;99859.31;5041816;27;129865;-72
2022/08/25 02:31:17;;;;;;;15.73;6.00;;;19.10;1.00;;;19.89;72.63;99855.28;5026451;27;128359;-71
2022/08/25 02:33:46;;;;;;;12.68;6.03;;;19.00;1.00;;;19.82;72.85;99861.47;5040960;27;121956;-73
2022/08/25 02:36:14;;;;;;;10.07;5.45;;;18.90;1.00;;;19.83;72.66;99857.53;5041871;27;121585;-76
2022/08/25 02:38:45;;;;;;;16.30;5.95;;;19.00;1.00;;;19.81;74.79;99857.09;5009774;27;128796;-72
2022/08/25 02:41:18;;;;;;;14.23;5.82;;;18.90;1.00;;;19.74;73.70;99855.00;5041837;27;129275;-72
2022/08/25 02:43:49;;;;;;;12.57;5.72;;;18.90;1.00;;;19.73;74.24;99858.09;5027124;27;118826;-71
2022/08/25 02:46:19;;;;;;;11.48;6.20;;;18.90;1.00;;;19.72;73.90;99851.78;5026372;27;118258;-71
2022/08/25 02:48:51;;;;;;;12.07;5.57;;;18.90;1.00;;;19.71;73.70;99852.97;5041548;27;130425;-71
2022/08/25 02:51:22;;;;;;;13.30;5.57;;;18.80;1.00;;;19.68;73.94;99855.63;5009665;27;128238;-71
2022/08/25 02:53:52;;;;;;;13.18;6.25;;;18.80;1.00;;;19.61;75.01;99856.28;5041974;27;120341;-73
2022/08/25 02:56:21;;;;;;;13.85;6.57;;;18.70;1.00;;;19.55;75.56;99857.75;5023481;27;119453;-73
2022/08/25 02:58:50;;;;;;;11.10;6.32;;;18.60;1.00;;;19.51;75.60;99862.38;5025490;27;128625;-72
2022/08/25 03:01:19;;;;;;;11.45;5.70;;;18.60;1.00;;;19.45;76.16;99866.59;5026407;27;128557;-74
2022/08/25 03:03:48;;;;;;;11.50;5.93;;;18.50;1.00;;;19.38;77.41;99859.81;5041727;27;119347;-72
2022/08/25 03:06:23;;;;;;;13.52;6.75;;;18.40;1.00;;;19.35;77.22;99866.03;5026667;27;118303;-75
2022/08/25 03:08:54;;;;;;;12.95;6.85;;;18.40;1.00;;;19.29;77.28;99869.41;5041390;27;130334;-72
2022/08/25 03:11:25;;;;;;;10.85;6.07;;;18.40;1.00;;;19.27;78.83;99858.75;5040778;27;129893;-72
2022/08/25 03:13:55;;;;;;;11.25;6.47;;;18.40;1.00;;;19.28;79.54;99859.59;5041373;27;119692;-73
2022/08/25 03:16:24;;;;;;;13.82;6.47;;;18.40;1.00;;;19.32;77.72;99866.75;5010250;27;118805;-72
2022/08/25 03:18:53;;;;;;;15.15;7.35;;;18.40;1.00;;;19.38;77.21;99864.50;5041123;27;129822;-73
2022/08/25 03:21:22;;;;;;;14.43;6.55;;;18.50;1.00;;;19.43;76.94;99868.91;5041127;27;129827;-72
2022/08/25 03:23:52;;;;;;;16.75;6.95;;;18.60;1.00;;;19.49;76.42;99870.22;5039606;27;121781;-72
2022/08/25 03:29:09;;;;;;;13.90;6.32;;;18.70;1.00;;;19.64;76.13;99869.34;5040936;27;129854;-72
2022/08/25 03:31:38;;;;;;;17.60;6.85;;;18.80;1.00;;;19.70;75.91;99870.63;5040846;27;129559;-72
2022/08/25 03:34:08;;;;;;;10.82;5.95;;;18.70;1.00;;;19.78;75.15;99870.81;5040931;27;119585;-73
2022/08/25 03:36:36;;;;;;;20.08;7.53;;;18.80;1.00;;;19.82;75.06;99866.16;5040553;27;119587;-72
2022/08/25 03:39:07;;;;;;;17.00;7.32;;;18.80;1.00;;;19.94;74.66;99868.72;5040337;27;130927;-72
2022/08/25 03:41:36;;;;;;;17.02;6.82;;;19.00;1.00;;;20.11;73.78;99868.25;5009122;27;129544;-73
2022/08/25 03:44:07;;;;;;;14.20;7.10;;;19.10;1.00;;;20.28;72.96;99860.66;5025790;27;118478;-73
2022/08/25 03:46:41;;;;;;;16.48;7.50;;;19.30;1.00;;;20.39;72.13;99861.63;5040871;27;119583;-74
2022/08/25 03:49:14;;;;;;;14.95;7.10;;;19.40;1.00;;;20.53;71.17;99860.28;5007814;27;128796;-72
2022/08/25 03:51:48;;;;;;;16.95;7.60;;;19.50;1.00;;;20.70;70.23;99862.53;5042856;27;130043;-73
2022/08/25 03:54:22;;;;;;;13.82;7.10;;;19.60;1.00;;;20.83;69.88;99858.41;5025600;27;119252;-73
2022/08/25 03:56:50;;;;;;;13.82;6.40;;;19.80;1.00;;;20.92;69.06;99860.09;5040523;27;119054;-73
2022/08/25 03:59:19;;;;;;;14.52;6.20;;;19.90;1.00;;;21.06;68.70;99860.28;5024608;27;129267;-74
2022/08/25 04:01:49;;;;;;;13.13;6.32;;;19.90;1.00;;;21.27;68.25;99858.97;5040461;27;130150;-76
2022/08/25 04:04:18;;;;;;;10.45;5.85;;;20.20;1.00;;;21.40;67.71;99863.06;5040522;27;119611;-73
2022/08/25 04:06:47;;;;;;;15.88;5.85;;;20.20;1.00;;;21.49;67.50;99855.31;5041010;27;119626;-74
2022/08/25 04:09:17;;;;;;;14.68;5.53;;;20.30;1.00;;;21.58;66.78;99863.31;5040125;27;129646;-75
2022/08/25 04:11:45;;;;;;;9.85;5.70;;;20.30;1.00;;;21.70;65.88;99862.25;5040023;27;129436;-75
2022/08/25 04:14:15;;;;;;;13.60;6.40;;;20.40;1.00;;;21.81;65.56;99859.59;5039164;27;122617;-74
2022/08/25 04:16:44;;;;;;;13.57;5.63;;;20.50;1.00;;;21.90;65.20;99860.09;5031644;27;120507;-73
2022/08/25 04:19:13;;;;;;;17.17;5.95;;;20.50;1.00;;;22.00;64.58;99855.84;5039789;27;130187;-72
2022/08/25 04:21:42;;;;;;;15.38;5.75;;;20.60;1.00;;;22.08;64.31;99865.81;5039336;27;130390;-72
2022/08/25 04:24:13;;;;;;;12.25;5.78;;;20.70;1.00;;;22.17;64.29;99860.72;5024924;27;118918;-71
2022/08/25 04:26:45;;;;;;;10.40;5.47;;;20.70;1.00;;;22.25;63.82;99850.53;5025381;27;118580;-73
2022/08/25 04:29:19;;;;;;;14.15;5.72;;;20.80;1.00;;;22.24;64.22;99858.03;5039793;27;130739;-73
2022/08/25 04:31:49;;;;;;;13.05;5.43;;;20.80;1.00;;;22.39;63.48;99860.94;5040501;27;129982;-72
2022/08/25 04:34:20;;;;;;;15.32;5.65;;;20.90;1.00;;;22.52;63.00;99853.94;5025263;27;119369;-73
2022/08/25 04:36:49;;;;;;;15.02;5.30;;;21.00;1.00;;;22.63;62.34;99856.00;5040419;27;119459;-75
2022/08/25 04:39:20;;;;;;;15.60;6.40;;;21.10;1.00;;;22.70;61.91;99859.59;5038549;27;129995;-74
2022/08/25 04:41:51;;;;;;;15.40;5.65;;;21.10;1.00;;;22.78;61.63;99860.41;5040018;27;129555;-73
2022/08/25 04:44:20;;;;;;;17.45;5.95;;;21.20;1.00;;;22.91;61.14;99847.88;5040663;27;119483;-73
2022/08/25 04:46:49;;;;;;;15.25;6.18;;;21.30;1.00;;;22.99;61.38;99865.31;5040046;27;120207;-74
2022/08/25 04:49:18;;;;;;;15.52;5.50;;;21.40;1.00;;;23.11;60.38;99867.78;5039566;27;130458;-73
2022/08/25 04:51:46;;;;;;;13.68;6.38;;;21.50;1.00;;;23.23;60.09;99869.38;5042177;27;129816;-73
2022/08/25 04:54:20;;;;;;;14.93;5.45;;;21.60;1.00;;;23.36;59.55;99864.31;5025018;27;119122;-73
2022/08/25 04:56:51;;;;;;;15.75;5.35;;;21.70;1.00;;;23.41;59.53;99858.41;5040161;27;119331;-71
2022/08/25 04:59:20;;;;;;;10.48;5.78;;;21.70;1.00;;;23.51;59.31;99865.16;5039433;27;129985;-73
2022/08/25 05:01:49;;;;;;;16.25;4.97;;;21.80;1.00;;;23.60;58.86;99853.72;5021607;27;129426;-72
2022/08/25 05:04:21;;;;;;;14.02;5.15;;;21.90;1.00;;;23.73;58.13;99845.81;5038580;27;122299;-74
2022/08/25 05:06:50;;;;;;;13.73;5.50;;;22.00;1.00;;;23.86;57.73;99855.38;5039961;27;121617;-77
2022/08/25 05:09:18;;;;;;;12.90;5.30;;;22.10;1.00;;;23.92;57.39;99853.81;5039449;27;130413;-73
2022/08/25 05:11:47;;;;;;;12.25;4.93;;;22.20;1.00;;;23.97;57.27;99852.63;5041592;27;129394;-72
2022/08/25 05:14:21;;;;;;;12.30;5.53;;;22.20;1.00;;;24.14;57.29;99856.63;5028485;27;119152;-73
2022/08/25 05:16:50;;;;;;;12.43;5.25;;;22.40;1.00;;;24.27;56.19;99855.00;5043388;27;119634;-72
2022/08/25 05:19:18;;;;;;;9.45;4.53;;;22.50;1.00;;;24.36;55.70;99855.41;5042891;27;130627;-74
2022/08/25 05:21:47;;;;;;;13.50;5.47;;;22.50;1.00;;;24.39;55.89;99854.63;5043397;27;129874;-72
2022/08/25 05:24:16;;;;;;;11.18;4.63;;;22.60;1.00;;;24.43;55.05;99860.16;5043076;27;119562;-74
2022/08/25 05:26:44;;;;;;;13.35;4.90;;;22.60;1.00;;;24.37;54.84;99845.91;5043769;27;119652;-73
2022/08/25 05:29:14;;;;;;;16.60;5.35;;;22.60;1.00;;;24.60;54.37;99858.59;5040660;27;130380;-72
2022/08/25 05:31:44;;;;;;;12.52;5.50;;;22.80;1.00;;;24.56;54.66;99852.25;5042929;27;129826;-75
2022/08/25 05:34:13;;;;;;;13.57;5.00;;;22.80;1.00;;;24.62;54.07;99856.22;5024940;27;119455;-76
2022/08/25 05:36:42;;;;;;;16.30;5.25;;;22.90;1.00;;;24.74;53.70;99847.50;5028600;27;118234;-72
2022/08/25 05:39:11;;;;;;;19.92;5.82;;;23.00;1.00;;;24.84;53.84;99839.50;5043027;27;130246;-71
2022/08/25 05:41:41;;;;;;;14.93;5.97;;;23.10;1.00;;;25.00;53.45;99848.19;5019735;27;131411;-73
2022/08/25 05:44:11;;;;;;;13.52;5.72;;;23.10;1.00;;;25.10;52.91;99847.38;5042985;27;119490;-73
2022/08/25 05:46:39;;;;;;;17.88;6.47;;;23.20;1.00;;;25.17;52.43;99840.22;5043263;27;119993;-73
2022/08/25 05:49:10;;;;;;;15.55;5.10;;;23.20;1.00;;;25.21;52.40;99852.09;5042603;27;130719;-73
2022/08/25 05:51:38;;;;;;;18.88;5.38;;;23.40;1.00;;;25.29;52.56;99853.66;5028829;27;130088;-72
2022/08/25 05:54:07;;;;;;;19.52;5.55;;;23.50;1.00;;;25.36;52.04;99858.41;5021251;28;121969;-74
2022/08/25 05:56:37;;;;;;;14.63;5.47;;;23.60;1.00;;;25.55;51.70;99846.00;5021730;28;121857;-74
2022/08/25 05:59:05;;;;;;;13.77;5.15;;;23.70;1.00;;;25.64;51.31;99854.69;5021990;28;130567;-75
2022/08/25 06:04:22;;;;;;;15.88;5.13;;;23.80;1.00;;;25.64;50.70;99851.91;5022548;28;120627;-72
2022/08/25 06:06:52;;;;;;;20.38;5.78;;;23.80;1.00;;;25.71;50.89;99851.88;5022404;28;119036;-75
2022/08/25 06:09:22;;;;;;;13.43;5.45;;;23.80;1.00;;;25.89;50.65;99839.84;5021829;28;131399;-71
2022/08/25 06:11:51;;;;;;;13.57;5.55;;;24.00;1.00;;;25.87;49.99;99842.22;5007667;28;128671;-72
2022/08/25 06:14:20;;;;;;;15.40;5.35;;;24.10;1.00;;;26.08;49.60;99842.13;5007516;28;118489;-73
2022/08/25 06:16:50;;;;;;;15.20;5.68;;;24.20;1.00;;;26.10;49.26;99834.16;5022363;28;119548;-72
2022/08/25 06:19:22;;;;;;;19.58;5.63;;;24.30;1.00;;;26.27;49.53;99837.19;5002304;28;130589;-72
2022/08/25 06:21:54;;;;;;;21.02;5.10;;;24.40;1.00;;;26.33;48.87;99841.13;5021209;27;129372;-77
2022/08/25 06:24:23;;;;;;;14.60;5.18;;;24.50;1.00;;;26.44;48.16;99841.81;5022021;28;119431;-72
2022/08/25 06:26:52;;;;;;;17.00;5.45;;;24.60;1.00;;;26.50;48.44;99834.59;5022077;28;120054;-71
2022/08/25 06:29:21;;;;;;;18.23;4.95;;;24.60;1.00;;;26.50;48.35;99845.72;5039729;27;129900;-77
2022/08/25 06:31:50;;;;;;;14.65;4.72;;;24.60;1.00;;;26.59;48.19;99838.91;5026967;27;129061;-71
2022/08/25 06:34:21;;;;;;;12.63;4.68;;;24.70;1.00;;;26.76;47.52;99840.75;5027584;27;119525;-73
2022/08/25 06:36:50;;;;;;;15.60;4.47;;;24.90;1.00;;;26.88;46.99;99847.75;5042488;27;119504;-74
2022/08/25 06:39:18;;;;;;;12.60;4.45;;;25.00;1.00;;;26.97;46.51;99850.06;5041716;27;129675;-75
2022/08/25 06:41:52;;;;;;;13.98;4.40;;;25.10;1.00;;;27.14;46.32;99842.69;5041733;27;129789;-74
2022/08/25 06:44:22;;;;;;;13.27;4.65;;;25.20;1.00;;;27.34;45.94;99852.03;5040807;27;122056;-73
2022/08/25 06:46:51;;;;;;;17.08;5.40;;;25.50;1.00;;;27.51;46.05;99844.63;5042023;27;121904;-77
2022/08/25 06:49:21;;;;;;;13.63;4.40;;;25.60;1.00;;;27.68;45.22;99847.59;5041814;27;130399;-72
2022/08/25 06:51:50;;;;;;;16.75;4.35;;;25.70;1.00;;;27.79;45.16;99842.66;5044164;27;130034;-72
2022/08/25 06:54:19;;;;;;;15.45;4.95;;;25.80;1.00;;;27.80;44.09;99844.25;5042038;27;119483;-71
2022/08/25 06:56:48;;;;;;;11.45;4.00;;;25.80;1.00;;;27.71;43.76;99846.75;5042072;27;119221;-72
2022/08/25 06:59:17;;;;;;;9.13;4.13;;;25.70;1.00;;;27.74;43.89;99849.50;5009656;27;128900;-73
2022/08/25 07:01:46;;;;;;;11.40;4.22;;;25.70;1.00;;;27.88;43.64;99850.50;5041703;27;130075;-73
2022/08/25 07:04:14;;;;;;;12.60;4.68;;;25.90;1.00;;;27.70;43.59;99851.53;5041869;27;119423;-75
2022/08/25 07:06:44;;;;;;;13.25;4.78;;;25.70;1.00;;;27.81;43.40;99851.38;5026909;27;119149;-74
2022/08/25 07:09:14;;;;;;;9.63;4.05;;;25.90;1.00;;;27.85;44.20;99852.13;5024858;27;129914;-72
2022/08/25 07:11:45;;;;;;;9.35;3.95;;;26.00;1.00;;;27.83;43.28;99848.16;5026235;27;128790;-74
2022/08/25 07:14:16;;;;;;;12.20;4.03;;;25.90;1.00;;;27.95;43.09;99850.41;5041557;27;119798;-71
2022/08/25 07:16:45;;;;;;;13.93;4.65;;;26.10;1.00;;;27.98;42.90;99853.13;5040977;27;119611;-71
2022/08/25 07:19:14;;;;;;;13.60;3.47;;;26.00;1.00;;;28.23;42.27;99849.16;5026345;27;129159;-71
2022/08/25 07:21:45;;;;;;;10.32;3.72;;;26.10;1.00;;;28.45;42.53;99848.78;5040829;27;129748;-73
2022/08/25 07:24:15;;;;;;;12.98;4.00;;;26.40;1.00;;;28.49;42.88;99849.53;5023237;27;120032;-71
2022/08/25 07:26:45;;;;;;;14.02;4.43;;;26.40;1.00;;;28.64;42.59;99850.06;5041698;27;119493;-75
2022/08/25 07:29:19;;;;;;;12.85;4.30;;;26.60;1.00;;;28.67;42.77;99852.00;5040840;27;130692;-72
2022/08/25 07:31:48;;;;;;;11.52;3.95;;;26.60;1.00;;;28.64;42.70;99842.50;5040850;27;129677;-73
2022/08/25 07:37:04;;;;;;;11.82;4.13;;;26.60;1.00;;;28.88;42.38;99842.44;5041080;27;121658;-74
2022/08/25 07:39:35;;;;;;;13.63;4.13;;;26.80;1.00;;;28.99;42.17;99837.44;5040627;27;130313;-72
2022/08/25 07:42:04;;;;;;;14.77;4.40;;;26.80;1.00;;;29.15;41.15;99839.50;5042485;27;129827;-74
2022/08/25 07:44:32;;;;;;;12.68;4.13;;;26.90;1.00;;;29.29;41.01;99837.66;5041150;27;119535;-72
2022/08/25 07:47:01;;;;;;;13.98;4.63;;;27.10;1.00;;;29.49;40.86;99834.84;5025990;27;119565;-74
2022/08/25 07:49:29;;;;;;;11.45;4.07;;;27.40;1.00;;;29.71;40.70;99835.13;5040967;27;130634;-76
2022/08/25 07:51:58;;;;;;;16.15;4.82;;;27.50;1.00;;;29.87;40.05;99828.81;5043624;27;130324;-71
2022/08/25 07:54:30;;;;;;;17.35;4.75;;;27.70;1.00;;;29.70;39.94;99839.94;5040712;27;119974;-74
2022/08/25 07:56:59;;;;;;;20.25;4.20;;;27.70;1.00;;;29.78;39.63;99829.38;5025703;27;119093;-73
2022/08/25 07:59:27;;;;;;;16.73;4.93;;;27.60;1.00;;;29.95;39.36;99824.63;5039270;27;129992;-72
2022/08/25 08:01:56;;;;;;;10.27;4.00;;;27.80;1.00;;;30.14;39.44;99822.16;5025028;27;129929;-74
2022/08/25 08:04:25;;;;;;;9.20;3.92;;;28.00;1.00;;;30.17;38.76;99824.06;5040993;27;120679;-74
2022/08/25 08:06:54;;;;;;;13.43;3.90;;;28.10;1.00;;;30.24;37.74;99816.28;5025728;27;118835;-75
2022/08/25 08:09:22;;;;;;;14.07;3.58;;;28.20;1.00;;;30.25;36.92;99820.66;5040461;27;130411;-71
2022/08/25 08:11:53;;;;;;;13.23;4.55;;;28.00;1.00;;;30.25;38.07;99817.09;5025509;27;129487;-71
2022/08/25 08:14:22;;;;;;;12.75;4.35;;;28.00;1.00;;;30.39;37.61;99815.97;5025162;27;119515;-73
2022/08/25 08:16:50;;;;;;;11.45;4.20;;;28.20;1.00;;;30.46;37.64;99822.16;5040819;27;120081;-72
2022/08/25 08:19:19;;;;;;;18.25;4.30;;;28.20;1.00;;;30.65;37.35;99822.44;5040171;27;130377;-74
2022/08/25 08:21:48;;;;;;;10.30;3.72;;;28.50;1.00;;;30.68;36.83;99817.97;5025109;27;129406;-72
2022/08/25 08:24:17;;;;;;;11.60;4.07;;;28.50;1.00;;;30.65;36.86;99816.84;5039284;27;121719;-72
2022/08/25 08:26:46;;;;;;;12.68;3.90;;;28.40;1.00;;;30.65;35.95;99816.84;5040283;27;121818;-74
2022/08/25 08:29:15;;;;;;;13.95;4.50;;;28.30;1.00;;;30.87;36.49;99819.06;5040121;27;129999;-74
2022/08/25 08:31:44;;;;;;;17.90;5.05;;;28.50;1.00;;;31.08;36.61;99815.66;5040177;27;130708;-73
2022/08/25 08:34:14;;;;;;;14.18;4.30;;;28.80;1.00;;;31.10;35.40;99813.19;5040761;27;120098;-71
2022/08/25 08:36:42;;;;;;;11.98;4.43;;;28.80;1.00;;;31.19;36.82;99809.75;5040413;27;119966;-72
2022/08/25 08:39:11;;;;;;;15.02;4.22;;;29.00;1.00;;;31.21;36.33;99812.88;5040145;27;130134;-74
2022/08/25 08:42:20;;;;;;;14.73;4.70;;;29.00;1.00;;;31.28;35.69;99812.69;5025274;27;129100;-76
2022/08/25 08:45:22;;;;;;;11.27;4.05;;;29.10;1.00;;;31.40;35.25;99816.75;5039990;27;120150;-72
2022/08/25 08:48:15;;;;;;;15.27;4.32;;;29.10;1.00;;;31.53;35.12;99811.13;5040264;27;119232;-74
2022/08/25 08:50:56;;;;;;;10.45;4.22;;;29.10;1.00;;;31.46;35.21;99814.94;5039673;27;129895;-76
2022/08/25 08:53:38;;;;;;;13.65;4.15;;;29.20;1.00;;;31.44;34.32;99813.81;5039755;27;129676;-74
2022/08/25 08:56:11;;;;;;;11.32;4.18;;;29.10;1.00;;;31.38;34.23;99805.16;5039930;27;120082;-72
2022/08/25 08:58:46;;;;;;;12.85;4.15;;;29.10;1.00;;;31.52;34.47;99810.34;5040130;27;120108;-71
2022/08/25 09:01:28;;;;;;;9.17;3.93;;;29.20;1.00;;;31.70;34.29;99814.63;5039818;27;132246;-72
2022/08/25 09:04:05;;;;;;;11.93;4.18;;;29.50;1.00;;;31.89;34.22;99808.00;5021254;27;129607;-74
2022/08/25 09:06:41;;;;;;;15.82;4.43;;;29.60;1.00;;;32.09;33.15;99807.00;5022159;27;119503;-76
2022/08/25 09:09:14;;;;;;;11.20;4.07;;;29.70;1.00;;;32.09;33.68;99812.59;5008644;27;118476;-73
2022/08/25 09:12:00;;;;;;;9.38;4.50;;;29.70;1.00;;;32.00;33.35;99807.63;5039596;27;129908;-72
2022/08/25 09:14:46;;;;;;;15.05;4.35;;;29.80;1.00;;;32.25;32.89;99811.66;5008049;27;128257;-74
2022/08/25 09:17:42;;;;;;;11.90;4.15;;;30.00;1.00;;;32.19;32.09;99810.66;5038694;27;121990;-75
2022/08/25 09:20:34;;;;;;;;;;;29.90;1.00;;;32.34;32.54;99811.75;5040532;27;122290;-73
2022/08/25 09:23:21;;;;;;;9.05;3.85;;;30.00;1.00;;;32.52;32.51;99811.13;5039414;27;130267;-72
2022/08/25 09:26:00;;;;;;;11.55;3.67;;;30.20;1.00;;;32.71;31.98;99805.66;5039432;27;129338;-74
2022/08/25 09:28:38;;;;;;;12.88;3.47;;;30.40;1.00;;;32.66;30.33;99803.44;5039458;27;119624;-73
2022/08/25 09:31:17;;;;;;;10.43;3.65;;;30.40;1.00;;;32.77;30.25;99795.41;5039854;27;119494;-73
2022/08/25 09:33:47;;;;;;;10.57;4.03;;;30.50;1.00;;;32.88;30.15;99804.25;5039308;27;130413;-74
2022/08/25 09:36:16;;;;;;;12.13;4.07;;;30.50;1.00;;;32.94;29.56;99802.41;5039472;27;129660;-74
2022/08/25 09:38:44;;;;;;;11.05;4.22;;;30.50;1.00;;;33.01;29.92;99806.19;5039372;27;119408;-77
2022/08/25 09:41:18;;;;;;;11.55;3.65;;;30.60;1.00;;;33.15;30.41;99800.81;5024546;27;118944;-74
2022/08/25 09:43:54;;;;;;;13.02;3.55;;;30.80;1.00;;;32.97;28.88;99801.50;5037904;27;130215;-76
2022/08/25 09:46:28;;;;;;;12.00;3.30;;;30.70;1.00;;;33.12;28.94;99800.94;5038772;27;129609;-74
2022/08/25 09:49:11;;;;;;;10.13;3.60;;;30.80;1.00;;;33.16;28.79;99793.16;5039524;27;119685;-76
2022/08/25 09:51:40;;;;;;;9.77;3.40;;;30.80;1.00;;;33.23;28.88;99792.13;5041748;27;119318;-74
2022/08/25 09:54:20;;;;;;;7.65;3.50;;;30.90;1.00;;;33.10;28.22;99783.75;5024146;27;129097;-73
2022/08/25 09:56:52;;;;;;;9.18;3.10;;;30.80;1.00;;;33.11;27.93;99788.13;5039760;27;129640;-74
2022/08/25 09:59:24;;;;;;;12.57;3.55;;;30.70;1.00;;;33.21;28.08;99795.41;5043044;27;119407;-78
2022/08/25 10:01:55;;;;;;;7.93;3.25;;;30.80;1.00;;;33.05;28.10;99790.78;5027974;27;118979;-72
2022/08/25 10:04:32;;;;;;;12.82;3.35;;;30.60;1.00;;;33.14;28.41;99785.19;5027301;27;129653;-74
2022/08/25 10:07:03;;;;;;;6.05;3.20;;;30.90;1.00;;;33.29;28.24;99788.25;5042343;27;129570;-74
2022/08/25 10:09:38;;;;;;;7.53;2.90;;;31.10;1.00;;;33.39;28.08;99779.84;5041114;27;122240;-72
2022/08/25 10:12:20;;;;;;;11.70;3.20;;;31.00;1.00;;;33.55;27.68;99774.00;5042332;27;121573;-73
2022/08/25 10:14:48;;;;;;;8.68;3.20;;;31.20;1.00;;;33.37;27.28;99779.56;5040817;27;129586;-73
2022/08/25 10:17:26;;;;;;;8.82;3.60;;;31.10;1.00;;;33.54;27.79;99775.22;5043810;27;128857;-73
2022/08/25 10:20:18;;;;;;;7.47;3.47;;;31.20;1.00;;;33.58;27.44;99770.25;5027141;27;118626;-76
2022/08/25 10:22:48;;;;;;;8.38;3.28;;;31.30;1.00;;;33.62;27.25;99762.44;5027526;27;118599;-76
2022/08/25 10:25:25;;;;;;;9.10;3.10;;;31.20;1.00;;;33.72;27.05;99765.31;5043884;27;129184;-75
2022/08/25 10:28:09;;;;;;;11.18;3.17;;;31.30;1.00;;;33.73;26.82;99767.66;5027143;27;129125;-78
2022/08/25 10:30:58;;;;;;;14.70;4.15;;;31.30;1.00;;;33.54;26.77;99774.47;5042498;27;119592;-73
2022/08/25 10:33:37;;;;;;;12.30;3.22;;;31.30;1.00;;;33.63;27.22;99771.69;5041978;27;119817;-73
2022/08/25 10:36:16;;;;;;;14.13;3.28;;;31.20;1.00;;;33.75;26.15;99767.19;5040707;27;129701;-74
2022/08/25 10:38:48;;;;;;;8.35;3.13;;;31.20;1.00;;;33.79;26.59;99759.41;5041868;27;129641;-73